Time;durP1;ratioP1;P1;durP2;ratioP2;P2;SDS_P1;SDS_P2;PMS_P1;PMS_P2;Temp;Humidity;BMP_temperature;BMP_pressure;BME280_temperature;BME280_humidity;BME280_pressure;Samples;Min_cycle;Max_cycle;Signal;HPM_P1;HPM_P2
2022/06/02 00:00:48;;;;;;;10.37;5.70;;;;;;;20.69;100.00;101463.81;2073458;28;20423;-66
2022/06/02 00:02:18;;;;;;;13.33;5.33;;;;;;;20.67;100.00;101451.47;2073374;28;20495;-66
2022/06/02 00:03:37;;;;;;;7.60;5.27;;;;;;;20.64;100.00;101456.03;2073218;28;20409;-66
2022/06/02 00:04:49;;;;;;;9.73;5.27;;;;;;;20.62;100.00;101458.53;2073510;28;20442;-66
2022/06/02 00:05:52;;;;;;;10.60;5.90;;;;;;;20.59;100.00;101451.06;2073234;28;20411;-66
2022/06/02 00:07:20;;;;;;;10.70;5.97;;;;;;;20.60;100.00;101460.28;2073414;28;20428;-66
2022/06/02 00:08:38;;;;;;;14.97;6.40;;;;;;;20.59;100.00;101451.06;2073076;28;20533;-66
2022/06/02 00:09:47;;;;;;;10.93;6.70;;;;;;;20.59;100.00;101453.88;2073494;28;20902;-66
2022/06/02 00:11:09;;;;;;;11.90;6.73;;;;;;;20.58;100.00;101449.47;2073188;28;20400;-66
2022/06/02 00:12:23;;;;;;;9.57;5.93;;;;;;;20.60;100.00;101449.81;2073361;28;20400;-66
2022/06/02 00:13:46;;;;;;;10.43;6.80;;;;;;;20.08;100.00;101377.31;2073204;28;20795;-66
2022/06/02 00:14:53;;;;;;;10.97;6.03;;;;;;;20.57;100.00;101447.94;2073348;28;20500;-66
2022/06/02 00:16:00;;;;;;;8.13;5.73;;;;;;;20.57;100.00;101447.94;2073113;28;20467;-66
2022/06/02 00:17:06;;;;;;;9.33;5.73;;;;;;;20.55;100.00;101450.47;2073281;28;20871;-66
2022/06/02 00:18:32;;;;;;;8.80;6.33;;;;;;;20.51;100.00;101454.72;2073057;28;20411;-67
2022/06/02 00:19:35;;;;;;;9.23;6.97;;;;;;;20.51;100.00;101455.50;2073306;28;20784;-66
2022/06/02 00:20:42;;;;;;;8.43;6.37;;;;;;;20.49;100.00;101455.22;2073104;28;20411;-66
2022/06/02 00:21:51;;;;;;;10.73;6.50;;;;;;;20.13;100.00;101406.81;2073014;28;20420;-66
2022/06/02 00:23:10;;;;;;;12.00;6.03;;;;;;;20.43;100.00;101457.13;2073348;28;20407;-66
2022/06/02 00:24:28;;;;;;;7.67;4.97;;;;;;;20.35;100.00;101455.94;2073315;28;20404;-66
2022/06/02 00:25:31;;;;;;;9.60;5.13;;;;;;;20.29;100.00;101462.69;2073179;28;20397;-65
2022/06/02 00:27:04;;;;;;;8.23;4.87;;;;;;;20.25;100.00;101459.28;2073236;28;20940;-66
2022/06/02 00:28:14;;;;;;;10.60;4.93;;;;;;;20.20;100.00;101459.94;2069168;28;20466;-66
2022/06/02 00:29:20;;;;;;;7.77;4.80;;;;;;;20.18;100.00;101462.44;2073097;28;20523;-66
2022/06/02 00:30:39;;;;;;;7.90;5.30;;;;;;;20.18;100.00;101463.25;2064378;28;20790;-66
2022/06/02 00:32:12;;;;;;;7.13;4.70;;;;;;;20.12;100.00;101462.31;2066895;28;20420;-66
2022/06/02 00:33:46;;;;;;;7.60;5.30;;;;;;;20.00;100.00;101459.72;2073054;28;20975;-66
2022/06/02 00:34:54;;;;;;;7.53;5.43;;;;;;;19.99;100.00;101458.94;2073351;28;20799;-66
2022/06/02 00:36:01;;;;;;;10.20;5.40;;;;;;;19.72;100.00;101416.09;2073040;28;20957;-66
2022/06/02 00:37:31;;;;;;;10.60;5.77;;;;;;;19.95;100.00;101455.50;2073268;28;20808;-66
2022/06/02 00:38:36;;;;;;;9.13;5.50;;;;;;;19.97;100.00;101477.53;2057155;28;20442;-66
2022/06/02 00:39:38;;;;;;;9.03;6.10;;;;;;;19.94;100.00;101476.47;2073191;28;20432;-66
2022/06/02 00:40:39;;;;;;;10.03;6.27;;;;;;;19.89;100.00;101474.28;2073115;28;20439;-66
2022/06/02 00:42:05;;;;;;;13.47;6.43;;;;;;;19.82;100.00;101476.69;2072962;28;20415;-65
2022/06/02 00:43:10;;;;;;;9.83;6.70;;;;;;;19.75;100.00;101482.66;2061454;28;20698;-66
2022/06/02 00:44:15;;;;;;;10.93;6.53;;;;;;;19.25;100.00;101415.97;2064818;28;20420;-66
2022/06/02 00:45:18;;;;;;;12.10;7.50;;;;;;;19.75;100.00;101479.84;2073245;28;20917;-66
2022/06/02 00:46:33;;;;;;;12.00;7.60;;;;;;;19.69;100.00;101478.91;2072891;28;20474;-66
2022/06/02 00:47:43;;;;;;;9.30;7.20;;;;;;;19.70;100.00;101480.47;2073104;28;20477;-65
2022/06/02 00:48:50;;;;;;;12.80;7.60;;;;;;;19.76;100.00;101484.97;2073057;28;20397;-65
2022/06/02 00:50:05;;;;;;;8.87;6.87;;;;;;;19.81;100.00;101483.56;2073118;28;20789;-66
2022/06/02 00:51:21;;;;;;;10.97;6.90;;;;;;;19.77;100.00;101480.13;2072980;28;20506;-66
2022/06/02 00:52:38;;;;;;;11.13;6.80;;;;;;;19.82;100.00;101483.09;2073073;28;20453;-66
2022/06/02 00:57:31;;;;;;;9.23;6.83;;;;;;;19.81;100.00;101487.13;2073233;28;20381;-66
2022/06/02 00:58:39;;;;;;;14.20;6.73;;;;;;;19.81;100.00;101481.50;2072898;28;20438;-66
2022/06/02 01:00:08;;;;;;;11.13;7.13;;;;;;;19.83;100.00;101479.03;2073044;28;20411;-67
2022/06/02 01:01:12;;;;;;;10.13;6.57;;;;;;;19.72;100.00;101475.94;2073044;28;20914;-66
2022/06/02 01:02:13;;;;;;;11.03;6.53;;;;;;;19.78;100.00;101476.06;2072937;28;20522;-66
2022/06/02 01:03:18;;;;;;;10.73;6.67;;;;;;;19.77;100.00;101478.13;2072971;28;20423;-66
2022/06/02 01:04:19;;;;;;;16.27;7.30;;;;;;;19.77;100.00;101478.13;2072981;28;20192;-66
2022/06/02 01:05:38;;;;;;;11.97;7.03;;;;;;;19.80;100.00;101470.75;2073047;28;20430;-66
2022/06/02 01:06:50;;;;;;;13.43;6.60;;;;;;;19.84;100.00;101479.78;2073148;28;20157;-66
2022/06/02 01:08:20;;;;;;;13.10;6.97;;;;;;;19.86;100.00;101482.91;2072937;28;20413;-66
2022/06/02 01:09:28;;;;;;;12.90;6.80;;;;;;;19.89;100.00;101479.94;2073072;28;20869;-66
2022/06/02 01:10:56;;;;;;;14.37;6.80;;;;;;;19.85;100.00;101473.69;2072999;28;20429;-66
2022/06/02 01:12:21;;;;;;;13.43;6.60;;;;;;;19.93;100.00;101480.53;2074267;28;20867;-66
2022/06/02 01:13:46;;;;;;;12.90;6.57;;;;;;;19.94;100.00;101479.28;2074763;28;20422;-67
2022/06/02 01:15:05;;;;;;;9.80;6.23;;;;;;;19.94;100.00;101484.91;2074662;28;20419;-66
2022/06/02 01:16:18;;;;;;;11.20;7.00;;;;;;;19.92;100.00;101476.16;2066301;28;20461;-66
2022/06/02 01:17:44;;;;;;;11.27;6.60;;;;;;;19.97;100.00;101481.16;2066566;28;20912;-66
2022/06/02 01:19:16;;;;;;;11.87;5.93;;;;;;;19.98;100.00;101482.69;2066272;28;20852;-66
2022/06/02 01:20:43;;;;;;;11.17;5.87;;;;;;;19.95;100.00;101485.69;2053019;28;20437;-66
2022/06/02 01:21:44;;;;;;;8.33;5.40;;;;;;;19.92;100.00;101483.81;2066341;28;20403;-66
2022/06/02 01:23:03;;;;;;;10.93;4.90;;;;;;;19.89;100.00;101482.75;2066425;28;20423;-66
2022/06/02 01:24:25;;;;;;;8.13;5.53;;;;;;;19.85;100.00;101484.19;2066360;28;20165;-66
2022/06/02 01:26:01;;;;;;;9.80;5.40;;;;;;;19.85;100.00;101482.13;2066503;28;20398;-66
2022/06/02 01:27:23;;;;;;;8.27;5.63;;;;;;;19.72;100.00;101487.19;2066554;28;20846;-66
2022/06/02 01:28:36;;;;;;;10.17;5.30;;;;;;;19.64;100.00;101483.16;2066105;28;20419;-66
2022/06/02 01:30:17;;;;;;;9.70;5.00;;;;;;;19.54;100.00;101489.28;2066427;28;20427;-66
2022/06/02 01:31:42;;;;;;;8.27;5.80;;;;;;;19.48;100.00;101486.31;2066452;28;20921;-66
2022/06/02 01:32:57;;;;;;;8.63;6.03;;;;;;;19.49;100.00;101492.75;2073900;28;20428;-65
2022/06/02 01:34:22;;;;;;;10.80;6.00;;;;;;;19.49;100.00;101487.13;2072054;28;20834;-66
2022/06/02 01:35:31;;;;;;;8.57;5.57;;;;;;;19.50;100.00;101492.25;2066293;28;20491;-66
2022/06/02 01:36:53;;;;;;;7.77;5.60;;;;;;;19.52;100.00;101500.22;2066210;28;20852;-66
2022/06/02 01:38:09;;;;;;;10.20;6.43;;;;;;;19.53;100.00;101491.31;2066399;28;20409;-66
2022/06/02 01:39:41;;;;;;;11.70;6.23;;;;;;;19.45;100.00;101494.94;2066362;28;20405;-66
2022/06/02 01:41:20;;;;;;;11.27;6.93;;;;;;;19.42;100.00;101496.66;2066118;28;21004;-65
2022/06/02 01:42:45;;;;;;;19.20;6.97;;;;;;;19.40;100.00;101493.53;2041297;29;20478;-66
2022/06/02 01:43:58;;;;;;;12.80;8.53;;;;;;;19.43;100.00;101488.97;2041299;29;20404;-66
2022/06/02 01:45:10;;;;;;;13.93;6.87;;;;;;;19.43;100.00;101497.41;2059979;28;20436;-66
2022/06/02 01:46:49;;;;;;;12.10;6.80;;;;;;;19.44;100.00;101488.53;2066184;28;20417;-66
2022/06/02 01:48:02;;;;;;;10.10;7.10;;;;;;;19.47;100.00;101492.41;2041183;29;21009;-66
2022/06/02 01:49:03;;;;;;;11.77;6.50;;;;;;;19.46;100.00;101491.66;2066141;28;20956;-66
2022/06/02 01:50:34;;;;;;;13.37;6.77;;;;;;;19.47;100.00;101493.22;2057449;28;20432;-66
2022/06/02 01:51:53;;;;;;;9.10;6.63;;;;;;;19.47;100.00;101492.41;2061765;28;20172;-66
2022/06/02 01:53:02;;;;;;;11.53;6.60;;;;;;;19.49;100.00;101496.31;2066297;28;20972;-66
2022/06/02 01:54:23;;;;;;;11.27;6.90;;;;;;;19.51;100.00;101496.63;2066117;28;20409;-66
2022/06/02 01:55:47;;;;;;;12.53;6.87;;;;;;;19.52;100.00;101501.00;2066263;28;20417;-66
2022/06/02 01:56:57;;;;;;;9.40;6.43;;;;;;;19.03;100.00;101438.63;2061542;28;20802;-66
2022/06/02 01:58:09;;;;;;;14.97;6.90;;;;;;;19.51;100.00;101504.28;2066244;28;20433;-66
2022/06/02 01:59:12;;;;;;;9.90;6.30;;;;;;;19.49;100.00;101495.56;2073738;28;20530;-66
2022/06/02 02:00:21;;;;;;;11.47;5.70;;;;;;;19.44;100.00;101494.13;2073293;28;20419;-66
2022/06/02 02:01:40;;;;;;;13.40;6.23;;;;;;;19.38;100.00;101500.88;2066013;28;20418;-66
2022/06/02 02:02:54;;;;;;;10.10;6.57;;;;;;;18.83;100.00;101427.09;2073534;28;20424;-66
2022/06/02 02:04:03;;;;;;;9.17;6.70;;;;;;;19.23;100.00;101489.50;2063460;28;20517;-66
2022/06/02 02:05:18;;;;;;;11.83;6.17;;;;;;;19.31;100.00;101485.13;2058726;28;20408;-65
2022/06/02 02:06:40;;;;;;;11.90;7.03;;;;;;;19.35;100.00;101484.97;2066111;28;20438;-66
2022/06/02 02:08:02;;;;;;;13.27;6.60;;;;;;;19.40;100.00;101484.31;2066045;28;20433;-66
2022/06/02 02:09:15;;;;;;;15.40;7.20;;;;;;;19.42;100.00;101482.59;2065955;28;20458;-66
2022/06/02 02:10:31;;;;;;;16.70;7.33;;;;;;;19.46;100.00;101490.88;2066112;28;20436;-66
2022/06/02 02:11:48;;;;;;;15.37;7.47;;;;;;;19.37;100.00;101477.63;2065957;28;20801;-66
2022/06/02 02:12:57;;;;;;;18.23;6.37;;;;;;;19.51;100.00;101482.59;2065945;28;20490;-66
2022/06/02 02:14:22;;;;;;;14.00;6.73;;;;;;;19.49;100.00;101485.06;2073373;28;21132;-66
2022/06/02 02:15:47;;;;;;;13.30;6.50;;;;;;;19.15;100.00;101450.94;2070657;28;20409;-65
2022/06/02 02:16:59;;;;;;;11.23;6.20;;;;;;;19.28;100.00;101474.03;2066023;28;20526;-66
2022/06/02 02:18:18;;;;;;;10.67;6.57;;;;;;;19.33;100.00;101484.63;2073276;28;20428;-66
2022/06/02 02:19:31;;;;;;;11.33;6.60;;;;;;;19.31;100.00;101470.28;2071345;28;20840;-66
2022/06/02 02:20:54;;;;;;;12.17;6.70;;;;;;;18.82;100.00;101407.91;2066094;28;20833;-66
2022/06/02 02:22:04;;;;;;;11.60;7.23;;;;;;;19.29;100.00;101484.03;2065851;28;20767;-66
2022/06/02 02:23:26;;;;;;;13.23;6.33;;;;;;;19.21;100.00;101485.56;2066027;28;20464;-66
2022/06/02 02:24:53;;;;;;;11.73;7.10;;;;;;;19.14;100.00;101486.66;2073371;28;20420;-66
2022/06/02 02:26:01;;;;;;;10.80;6.70;;;;;;;19.12;100.00;101505.25;2070042;28;20420;-65
2022/06/02 02:27:08;;;;;;;10.70;7.20;;;;;;;19.13;100.00;101485.13;2066102;28;20397;-65
2022/06/02 02:28:25;;;;;;;8.23;6.77;;;;;;;19.18;100.00;101490.09;2065769;28;20436;-66
2022/06/02 02:30:00;;;;;;;9.57;7.30;;;;;;;19.04;100.00;101464.69;2066081;28;20905;-66
2022/06/02 02:31:16;;;;;;;10.33;7.03;;;;;;;19.21;100.00;101489.19;2065690;28;21265;-66
2022/06/02 02:32:26;;;;;;;8.87;6.77;;;;;;;19.22;100.00;101493.56;2065908;28;20467;-65
2022/06/02 02:33:57;;;;;;;9.80;7.43;;;;;;;19.21;100.00;101485.56;2065735;28;20411;-66
2022/06/02 02:35:11;;;;;;;10.47;7.10;;;;;;;19.16;100.00;101480.59;2065967;28;20831;-66
2022/06/02 02:36:27;;;;;;;12.77;7.17;;;;;;;19.20;100.00;101482.00;2057250;28;21077;-65
2022/06/02 02:37:38;;;;;;;9.47;6.77;;;;;;;19.24;100.00;101485.44;2057267;28;20950;-66
2022/06/02 02:39:06;;;;;;;13.53;6.80;;;;;;;19.26;100.00;101490.59;2058573;28;20413;-65
2022/06/02 02:40:16;;;;;;;12.77;7.37;;;;;;;19.29;100.00;101484.81;2073064;28;20419;-66
2022/06/02 02:41:27;;;;;;;12.13;6.77;;;;;;;19.24;100.00;101493.88;2072218;28;20478;-65
2022/06/02 02:42:39;;;;;;;13.73;7.10;;;;;;;19.24;100.00;101490.28;2065884;28;20422;-65
2022/06/02 02:44:24;;;;;;;9.80;6.63;;;;;;;19.22;100.00;101489.97;2065486;28;20400;-66
2022/06/02 02:45:46;;;;;;;10.07;6.70;;;;;;;19.19;100.00;101490.91;2050498;28;20936;-65
2022/06/02 02:46:47;;;;;;;9.80;6.60;;;;;;;19.18;100.00;101500.59;2065746;28;20401;-65
2022/06/02 02:48:19;;;;;;;11.43;6.47;;;;;;;19.01;100.00;101465.63;2056888;28;20474;-66
2022/06/02 02:49:25;;;;;;;10.73;6.70;;;;;;;18.85;100.00;101443.47;2053383;28;20188;-66
2022/06/02 02:50:51;;;;;;;8.23;6.60;;;;;;;19.18;100.00;101497.78;2065684;28;20464;-66
2022/06/02 02:52:16;;;;;;;8.63;6.40;;;;;;;19.21;100.00;101497.59;2070218;28;20410;-66
2022/06/02 02:53:26;;;;;;;10.37;7.13;;;;;;;19.27;100.00;101497.78;2065648;28;20438;-66
2022/06/02 02:54:59;;;;;;;10.03;6.40;;;;;;;19.31;100.00;101493.56;2065902;28;20872;-66
2022/06/02 02:56:18;;;;;;;13.60;6.40;;;;;;;19.36;100.00;101503.38;2073053;28;20456;-67
2022/06/02 02:57:37;;;;;;;11.53;6.47;;;;;;;19.38;100.00;101493.22;2071059;28;20396;-66
2022/06/02 02:58:45;;;;;;;10.83;6.63;;;;;;;19.40;100.00;101496.31;2073002;28;20446;-66
2022/06/02 02:59:57;;;;;;;13.80;6.07;;;;;;;19.22;100.00;101476.72;2072454;28;20901;-66
2022/06/02 03:01:10;;;;;;;13.27;6.73;;;;;;;19.39;100.00;101488.41;2056690;28;20828;-66
2022/06/02 03:02:42;;;;;;;14.50;6.10;;;;;;;19.01;100.00;101424.28;2058892;28;20426;-66
2022/06/02 03:03:56;;;;;;;13.53;5.70;;;;;;;18.98;100.00;101422.41;2054863;28;20434;-65
2022/06/02 03:05:15;;;;;;;9.73;5.37;;;;;;;19.38;100.00;101496.03;2065834;28;20486;-65
2022/06/02 03:06:26;;;;;;;12.87;5.63;;;;;;;19.41;100.00;101494.31;2065434;28;20425;-65
2022/06/02 03:07:29;;;;;;;12.43;6.33;;;;;;;18.93;100.00;101420.22;2065742;28;20431;-66
2022/06/02 03:08:29;;;;;;;9.50;6.17;;;;;;;19.42;100.00;101493.06;2065347;28;20496;-66
2022/06/02 03:09:30;;;;;;;10.57;6.20;;;;;;;19.42;100.00;101496.66;2065832;28;20425;-66
2022/06/02 03:10:38;;;;;;;12.63;5.43;;;;;;;19.36;100.00;101484.50;2065479;28;20175;-65
2022/06/02 03:11:52;;;;;;;12.63;6.00;;;;;;;19.45;100.00;101492.88;2065702;28;20156;-66
2022/06/02 03:13:26;;;;;;;11.63;6.03;;;;;;;19.44;100.00;101496.94;2065455;28;20472;-65
2022/06/02 03:14:39;;;;;;;11.37;5.97;;;;;;;19.49;100.00;101496.31;2061786;28;20441;-66
2022/06/02 03:15:52;;;;;;;10.17;5.90;;;;;;;19.47;100.00;101498.84;2070864;28;20467;-66
2022/06/02 03:17:02;;;;;;;11.33;5.43;;;;;;;18.91;100.00;101419.91;2073792;28;20412;-66
2022/06/02 03:18:24;;;;;;;8.50;5.40;;;;;;;19.49;100.00;101498.38;2073507;28;20406;-66
2022/06/02 03:19:37;;;;;;;9.17;5.40;;;;;;;19.54;100.00;101495.69;2073687;28;20409;-66
2022/06/02 03:20:38;;;;;;;9.73;5.50;;;;;;;19.57;100.00;101497.56;2073478;28;20482;-65
2022/06/02 03:22:13;;;;;;;14.03;6.13;;;;;;;19.58;100.00;101501.13;2073466;28;20412;-66
2022/06/02 03:23:29;;;;;;;13.40;6.00;;;;;;;19.18;100.00;101438.75;2057540;28;20583;-66
2022/06/02 03:24:50;;;;;;;11.33;6.13;;;;;;;19.26;100.00;101470.91;2081110;28;20412;-66
2022/06/02 03:26:02;;;;;;;12.43;6.20;;;;;;;19.63;100.00;101497.69;2078525;28;20898;-66
2022/06/02 03:27:18;;;;;;;9.53;6.13;;;;;;;19.64;100.00;101500.03;2073686;28;20447;-66
2022/06/02 03:28:30;;;;;;;11.23;5.70;;;;;;;19.65;100.00;101503.63;2073446;28;20909;-66
2022/06/02 03:29:43;;;;;;;13.93;6.40;;;;;;;19.67;100.00;101501.91;2081312;28;20430;-66
2022/06/02 03:31:12;;;;;;;12.73;6.20;;;;;;;19.67;100.00;101498.28;2079376;28;20505;-66
2022/06/02 03:32:31;;;;;;;12.60;5.57;;;;;;;19.14;100.00;101429.72;2064800;28;20428;-66
2022/06/02 03:33:38;;;;;;;13.73;6.40;;;;;;;19.70;100.00;101508.59;2066989;28;20410;-66
2022/06/02 03:34:59;;;;;;;11.97;5.17;;;;;;;19.70;100.00;101506.56;2073554;28;20405;-66
2022/06/02 03:36:24;;;;;;;9.50;5.00;;;;;;;19.72;100.00;101500.47;2080860;28;20459;-65
2022/06/02 03:37:37;;;;;;;9.57;4.97;;;;;;;19.73;100.00;101500.00;2078114;28;20400;-66
2022/06/02 03:38:47;;;;;;;12.57;5.77;;;;;;;19.75;100.00;101510.78;2073476;28;20788;-66
2022/06/02 03:40:01;;;;;;;7.77;5.67;;;;;;;19.79;100.00;101502.94;2081023;28;20928;-65
2022/06/02 03:41:16;;;;;;;12.13;6.00;;;;;;;19.38;100.00;101439.03;2079116;28;20859;-66
2022/06/02 03:42:34;;;;;;;13.57;6.00;;;;;;;19.84;100.00;101510.72;2081014;28;20989;-66
2022/06/02 03:43:43;;;;;;;10.93;6.17;;;;;;;19.87;100.00;101510.56;2078823;28;20494;-66
2022/06/02 03:45:06;;;;;;;12.97;6.80;;;;;;;19.90;100.00;101501.16;2073515;28;20431;-66
2022/06/02 03:46:59;;;;;;;12.97;6.10;;;;;;;19.94;100.00;101506.63;2056174;28;20422;-66
2022/06/02 03:48:34;;;;;;;10.30;5.17;;;;;;;19.91;100.00;101501.97;2016998;29;20469;-66
2022/06/02 03:49:46;;;;;;;9.17;5.57;;;;;;;19.92;100.00;101497.88;2059277;28;20426;-66
2022/06/02 03:51:20;;;;;;;9.33;5.70;;;;;;;19.87;100.00;101493.69;2066005;28;20417;-66
2022/06/02 03:52:37;;;;;;;12.43;6.57;;;;;;;19.92;100.00;101495.06;2073339;28;20432;-66
2022/06/02 03:54:01;;;;;;;19.80;6.87;;;;;;;19.96;100.00;101501.31;2073219;28;20475;-65
2022/06/02 03:55:05;;;;;;;15.00;7.00;;;;;;;20.00;100.00;101494.25;2073235;28;20404;-66
2022/06/02 03:56:36;;;;;;;12.40;6.57;;;;;;;19.48;100.00;101420.88;2073277;28;20512;-66
2022/06/02 03:57:42;;;;;;;13.13;6.43;;;;;;;20.07;100.00;101502.34;2073420;28;20408;-66
2022/06/02 03:58:54;;;;;;;12.47;6.23;;;;;;;20.10;100.00;101500.63;2073282;28;20413;-66
2022/06/02 04:00:13;;;;;;;10.73;6.47;;;;;;;20.10;100.00;101506.25;2073305;28;20500;-66
2022/06/02 04:01:21;;;;;;;10.73;5.93;;;;;;;20.11;100.00;101497.34;2073247;28;20408;-66
2022/06/02 04:02:36;;;;;;;11.00;7.70;;;;;;;20.11;100.00;101502.97;2073352;28;20413;-67
2022/06/02 04:03:52;;;;;;;12.00;8.17;;;;;;;20.13;100.00;101506.09;2073117;28;20785;-66
2022/06/02 04:05:18;;;;;;;11.90;7.77;;;;;;;20.15;100.00;101514.03;2073310;28;20584;-66
2022/06/02 04:06:50;;;;;;;9.13;7.17;;;;;;;20.19;100.00;101506.22;2073095;28;20944;-66
2022/06/02 04:08:16;;;;;;;11.30;7.50;;;;;;;20.21;100.00;101496.03;2073300;28;20902;-65
2022/06/02 04:09:38;;;;;;;11.83;7.53;;;;;;;20.24;100.00;101495.09;2073262;28;20405;-66
2022/06/02 04:10:56;;;;;;;9.23;7.27;;;;;;;20.23;100.00;101487.91;2073106;28;20401;-66
2022/06/02 04:14:18;;;;;;;17.50;8.37;;;;;;;20.17;100.00;101494.66;2073002;28;20400;-65
2022/06/02 04:15:31;;;;;;;15.67;7.33;;;;;;;20.17;100.00;101494.66;2055929;28;20445;-65
2022/06/02 04:16:39;;;;;;;11.77;7.37;;;;;;;20.19;100.00;101500.59;2073217;28;20413;-66
2022/06/02 04:18:00;;;;;;;10.60;7.13;;;;;;;20.04;100.00;101466.72;2073154;28;20504;-66
2022/06/02 04:21:14;;;;;;;9.27;7.10;;;;;;;20.32;100.00;101493.47;2073000;28;20397;-66
2022/06/02 04:22:52;;;;;;;9.97;7.40;;;;;;;20.33;100.00;101495.06;2073047;28;20405;-66
2022/06/02 04:24:24;;;;;;;12.57;7.17;;;;;;;20.43;100.00;101499.38;2072800;28;20437;-66
2022/06/02 04:26:07;;;;;;;11.73;7.37;;;;;;;20.42;100.00;101497.78;2072791;28;20435;-66
2022/06/02 04:27:37;;;;;;;10.33;7.70;;;;;;;20.08;100.00;101442.03;2059162;28;20422;-66
2022/06/02 04:28:52;;;;;;;12.33;7.80;;;;;;;20.47;100.00;101504.81;2072793;28;20409;-66
2022/06/02 04:30:02;;;;;;;13.47;7.70;;;;;;;20.51;100.00;101506.19;2080325;28;20411;-66
2022/06/02 04:31:36;;;;;;;9.73;7.60;;;;;;;20.47;100.00;101510.44;2079322;28;20435;-66
2022/06/02 04:32:51;;;;;;;11.10;7.40;;;;;;;20.45;100.00;101516.53;2072886;28;20407;-66
2022/06/02 04:34:02;;;;;;;10.93;7.63;;;;;;;20.50;100.00;101512.28;2072729;28;20503;-66
2022/06/02 04:35:40;;;;;;;14.07;7.57;;;;;;;20.62;100.00;101514.09;2073008;28;20462;-66
2022/06/02 04:36:52;;;;;;;12.63;7.83;;;;;;;20.70;100.00;101510.44;2073079;28;20794;-66
2022/06/02 04:38:07;;;;;;;15.33;8.17;;;;;;;20.74;100.00;101518.69;2072961;28;20638;-66
2022/06/02 04:39:33;;;;;;;13.77;8.17;;;;;;;20.80;100.00;101517.56;2072979;28;20409;-66
2022/06/02 04:40:36;;;;;;;11.90;7.47;;;;;;;20.81;100.00;101516.28;2072644;28;20552;-66
2022/06/02 04:41:46;;;;;;;10.87;7.83;;;;;;;20.87;100.00;101511.53;2072563;28;20432;-66
2022/06/02 04:43:03;;;;;;;9.77;7.97;;;;;;;20.31;100.00;101443.31;2064044;28;20453;-66
2022/06/02 04:44:22;;;;;;;10.17;8.03;;;;;;;20.87;100.00;101517.19;2066001;28;20444;-66
2022/06/02 04:45:30;;;;;;;9.00;8.00;;;;;;;20.92;100.00;101512.94;2071856;28;20503;-66
2022/06/02 04:46:48;;;;;;;15.60;7.93;;;;;;;20.93;100.00;101520.91;2072514;28;20408;-66
2022/06/02 04:47:59;;;;;;;17.77;11.07;;;;;;;21.02;100.00;101525.69;2072405;28;20474;-66
2022/06/02 04:49:08;;;;;;;17.47;9.80;;;;;;;21.06;100.00;101529.88;2072397;28;20459;-66
2022/06/02 04:50:23;;;;;;;11.83;9.13;;;;;;;20.52;100.00;101433.75;2072362;28;20793;-66
2022/06/02 04:51:41;;;;;;;11.90;7.90;;;;;;;20.72;100.00;101476.16;2063632;28;20469;-66
2022/06/02 04:52:53;;;;;;;13.10;9.03;;;;;;;21.29;100.00;101529.03;2062962;28;20573;-66
2022/06/02 04:54:28;;;;;;;13.07;10.07;;;;;;;21.21;100.00;101508.16;2064143;28;20907;-67
2022/06/02 04:55:41;;;;;;;17.83;12.97;;;;;;;21.46;100.00;101532.16;2072241;28;20396;-65
2022/06/02 04:56:51;;;;;;;13.33;9.30;;;;;;;21.11;100.00;101463.59;2072555;28;20412;-66
2022/06/02 04:58:17;;;;;;;14.33;8.50;;;;;;;21.29;100.00;101488.81;2070392;28;20444;-66
2022/06/02 04:59:25;;;;;;;12.23;8.57;;;;;;;21.35;100.00;101526.34;2055014;28;20186;-66
2022/06/02 05:01:03;;;;;;;17.73;11.87;;;;;;;21.44;100.00;101526.25;2062099;28;20512;-66
2022/06/02 05:02:28;;;;;;;13.90;10.53;;;;;;;21.58;100.00;101525.44;2060966;28;20537;-66
2022/06/02 05:04:10;;;;;;;14.10;8.30;;;;;;;21.67;100.00;101522.53;2066657;28;20413;-66
2022/06/02 05:05:25;;;;;;;13.47;8.83;;;;;;;21.73;100.00;101524.22;2056705;28;20964;-66
2022/06/02 05:06:47;;;;;;;13.67;8.80;;;;;;;21.35;100.00;101467.13;2072278;28;20867;-66
2022/06/02 05:07:59;;;;;;;13.00;8.73;;;;;;;21.81;100.00;101528.19;2072494;28;20845;-67
2022/06/02 05:09:06;;;;;;;10.13;8.20;;;;;;;21.83;100.00;101533.34;2072378;28;20559;-66
2022/06/02 05:10:15;;;;;;;10.50;8.33;;;;;;;21.89;100.00;101525.75;2072282;28;20801;-66
2022/06/02 05:11:26;;;;;;;10.20;8.23;;;;;;;21.57;100.00;101465.47;2063824;28;20569;-66
2022/06/02 05:12:47;;;;;;;16.17;8.50;;;;;;;23.26;100.00;101522.00;2065184;28;20189;-67
2022/06/02 05:14:04;;;;;;;16.20;8.70;;;;;;;23.00;100.00;101432.75;2072499;28;20401;-66
2022/06/02 05:15:46;;;;;;;12.43;8.93;;;;;;;23.73;100.00;101510.09;2068796;28;20177;-66
2022/06/02 05:16:58;;;;;;;11.57;8.43;;;;;;;23.78;100.00;101506.53;2031476;29;20188;-66
2022/06/02 05:18:13;;;;;;;13.27;8.83;;;;;;;23.90;100.00;101493.28;2062013;28;21001;-66
2022/06/02 05:19:52;;;;;;;11.53;8.77;;;;;;;24.12;100.00;101504.75;2072223;28;20430;-66
2022/06/02 05:21:07;;;;;;;12.33;8.23;;;;;;;24.29;100.00;101503.59;2044516;29;20210;-66
2022/06/02 05:22:38;;;;;;;11.90;8.10;;;;;;;24.19;100.00;101501.44;2043701;29;21037;-66
2022/06/02 05:24:02;;;;;;;23.40;8.13;;;;;;;24.19;100.00;101502.22;2046242;29;20924;-66
2022/06/02 05:25:18;;;;;;;11.90;8.30;;;;;;;23.48;100.00;101501.63;2044003;29;20191;-66
2022/06/02 05:26:24;;;;;;;13.83;7.90;;;;;;;22.84;100.00;101506.84;2046542;28;20459;-66
2022/06/02 05:27:43;;;;;;;11.20;8.10;;;;;;;22.74;100.00;101514.72;2063230;28;20946;-66
2022/06/02 05:29:09;;;;;;;12.33;8.17;;;;;;;22.73;100.00;101513.13;2064696;28;20861;-66
2022/06/02 05:30:16;;;;;;;14.80;7.87;;;;;;;22.76;100.00;101526.28;2063170;28;20516;-66
2022/06/02 05:31:34;;;;;;;12.77;7.93;;;;;;;22.78;100.00;101523.72;2061391;28;20428;-66
2022/06/02 05:32:56;;;;;;;10.23;7.73;;;;;;;22.80;100.00;101523.25;2072244;28;20408;-66
2022/06/02 05:34:35;;;;;;;13.40;8.23;;;;;;;22.92;100.00;101528.53;2072152;28;20453;-66
2022/06/02 05:35:41;;;;;;;12.67;7.93;;;;;;;22.96;100.00;101519.84;2043106;29;20582;-66
2022/06/02 05:36:51;;;;;;;14.67;8.33;;;;;;;22.96;100.00;101520.63;2045014;29;20427;-66
2022/06/02 05:38:04;;;;;;;12.93;7.77;;;;;;;22.46;100.00;101431.66;2051460;28;20825;-66
2022/06/02 05:39:29;;;;;;;13.90;7.90;;;;;;;22.84;100.00;101459.59;2079616;28;20439;-66
2022/06/02 05:40:37;;;;;;;11.03;8.27;;;;;;;23.25;100.00;101525.34;2074709;28;20426;-66
2022/06/02 05:42:02;;;;;;;11.27;8.50;;;;;;;23.25;100.00;101520.47;2071866;28;20783;-65
2022/06/02 05:43:20;;;;;;;12.93;8.03;;;;;;;23.24;100.00;101527.38;2072017;28;20417;-66
2022/06/02 05:44:43;;;;;;;12.50;8.30;;;;;;;22.96;100.00;101475.38;2071896;28;20169;-65
2022/06/02 05:46:19;;;;;;;11.27;8.03;;;;;;;23.33;100.00;101517.97;2069605;28;20906;-66
2022/06/02 05:47:39;;;;;;;10.30;7.53;;;;;;;23.27;100.00;101514.28;2046819;29;20547;-66
2022/06/02 05:49:53;;;;;;;12.27;8.13;;;;;;;23.31;100.00;101506.38;2068463;28;20444;-66
2022/06/02 05:51:10;;;;;;;12.27;8.57;;;;;;;23.48;100.00;101518.59;2026973;29;20440;-66
2022/06/02 05:52:16;;;;;;;13.20;9.43;;;;;;;23.59;100.00;101513.84;2021001;29;20931;-67
2022/06/02 05:53:42;;;;;;;14.93;10.77;;;;;;;23.71;100.00;101518.34;2031135;29;20195;-65
2022/06/02 05:55:04;;;;;;;13.07;10.07;;;;;;;23.37;100.00;101445.75;2047143;28;20175;-66
2022/06/02 05:56:33;;;;;;;11.77;9.67;;;;;;;23.96;100.00;101519.59;2062837;28;20648;-66
2022/06/02 05:57:46;;;;;;;13.30;8.70;;;;;;;24.01;100.00;101510.34;2071788;28;20173;-66
2022/06/02 05:59:13;;;;;;;10.43;7.80;;;;;;;24.06;100.00;101518.09;2073106;28;20192;-66
2022/06/02 06:00:25;;;;;;;11.67;8.03;;;;;;;24.04;100.00;101512.94;2071333;28;20638;-66
2022/06/02 06:02:03;;;;;;;12.13;8.27;;;;;;;23.91;100.00;101518.25;2072550;28;20232;-66
2022/06/02 06:03:06;;;;;;;11.37;7.83;;;;;;;23.87;100.00;101514.84;2073302;28;20578;-66